Storm Events Database

Event Details

Event Hail
Magnitude 1.00 in.
State TEXAS
County/Area COLLIN
WFO FWD
Begin Date 04/03/2007 18:23:00 CST-6
Begin Range 0
Begin Azimuth NW
Begin Location PLANO
Begin Lat/Lon 33.02/-96.72
End Date 04/03/2007 18:23:00 CST-6
Deaths Direct/Indirect 0/0 (fatality details below, when available...)
Injuries Direct/Indirect 0/0
Property Damage 0.00K
Crop Damage 0.00K
Episode Narrative A strong cold front and a passing upper level disturbance created an unstable atmosphere over North Texas. There were numerous hail reports and a few wind reports with this event.
Event Narrative


All events for this episode:

Location County/Zone St. Date Time T.Z. Type Mag Dth Inj PrD CrD
Totals: 0 0 173.00K 0.00K
BENBROOK TARRANT CO. TX 04/03/2007 17:44 CST-6 Hail 1.00 in. 0 0 0.00K 0.00K
FT WORTH RUSSELL ARP TARRANT CO. TX 04/03/2007 17:46 CST-6 Hail 0.75 in. 0 0 0.00K 0.00K
FT WORTH RUSSELL ARP TARRANT CO. TX 04/03/2007 17:51 CST-6 Hail 1.00 in. 0 0 0.00K 0.00K
RICHARDSON DALLAS CO. TX 04/03/2007 17:55 CST-6 Hail 0.75 in. 0 0 0.00K 0.00K
PLANO COLLIN CO. TX 04/03/2007 18:05 CST-6 Hail 1.25 in. 0 0 0.00K 0.00K
PLANO COLLIN CO. TX 04/03/2007 18:10 CST-6 Thunderstorm Wind 52 kts. EG 0 0 0.00K 0.00K
FT WORTH TARRANT CO. TX 04/03/2007 18:20 CST-6 Hail 0.75 in. 0 0 0.00K 0.00K
PLANO COLLIN CO. TX 04/03/2007 18:23 CST-6 Hail 1.00 in. 0 0 0.00K 0.00K
COPPELL DALLAS CO. TX 04/03/2007 18:25 CST-6 Hail 0.88 in. 0 0 0.00K 0.00K
FT WORTH RUSSELL ARP TARRANT CO. TX 04/03/2007 18:29 CST-6 Hail 1.00 in. 0 0 0.00K 0.00K
FT WORTH TARRANT CO. TX 04/03/2007 18:45 CST-6 Hail 1.25 in. 0 0 0.00K 0.00K
CROWLEY TARRANT CO. TX 04/03/2007 18:45 CST-6 Hail 2.50 in. 0 0 10.00K 0.00K
PLANO COLLIN CO. TX 04/03/2007 18:52 CST-6 Flash Flood 0 0 0.00K 0.00K
CROWLEY TARRANT CO. TX 04/03/2007 18:53 CST-6 Hail 2.00 in. 0 0 8.00K 0.00K
EULESS TARRANT CO. TX 04/03/2007 18:57 CST-6 Hail 1.00 in. 0 0 0.00K 0.00K
BENBROOK TARRANT CO. TX 04/03/2007 18:58 CST-6 Hail 2.75 in. 0 0 15.00K 0.00K
LOMETA LAMPASAS CO. TX 04/03/2007 19:00 CST-6 Hail 1.75 in. 0 0 5.00K 0.00K
ADDISON DALLAS CO. TX 04/03/2007 19:04 CST-6 Flash Flood 0 0 0.00K 0.00K
ARLINGTON TARRANT CO. TX 04/03/2007 19:05 CST-6 Hail 1.00 in. 0 0 0.00K 0.00K
GRANBURY HOOD CO. TX 04/03/2007 19:08 CST-6 Hail 0.75 in. 0 0 0.00K 0.00K
ARLINGTON TARRANT CO. TX 04/03/2007 19:15 CST-6 Hail 1.75 in. 0 0 10.00K 0.00K
ACTON HOOD CO. TX 04/03/2007 19:15 CST-6 Thunderstorm Wind 50 kts. EG 0 0 15.00K 0.00K
DALWORTHINGTON TARRANT CO. TX 04/03/2007 19:20 CST-6 Tornado EF0 0 0 100.00K 0.00K
FT WORTH TARRANT CO. TX 04/03/2007 19:30 CST-6 Thunderstorm Wind 50 kts. EG 0 0 10.00K 0.00K
STAR MILLS CO. TX 04/03/2007 19:34 CST-6 Hail 1.00 in. 0 0 0.00K 0.00K
LOMETA LAMPASAS CO. TX 04/03/2007 19:54 CST-6 Hail 1.00 in. 0 0 0.00K 0.00K
GLEN ROSE SOMERVELL CO. TX 04/03/2007 20:08 CST-6 Hail 0.75 in. 0 0 0.00K 0.00K
HILLSBORO HILL CO. TX 04/03/2007 21:14 CST-6 Hail 0.75 in. 0 0 0.00K 0.00K
MARLIN FALLS CO. TX 04/03/2007 22:50 CST-6 Hail 0.75 in. 0 0 0.00K 0.00K
Totals: 0 0 173.00K 0.00K